createdAt,value
2022-11-01T00:00:59.860Z,12.32
2022-11-01T00:01:59.809Z,12.29
2022-11-01T00:02:59.762Z,12.28
2022-11-01T00:03:59.724Z,12.28
2022-11-01T00:04:59.750Z,12.35
2022-11-01T00:05:59.741Z,12.35
2022-11-01T00:06:59.731Z,12.41
2022-11-01T00:08:00.005Z,12.77
2022-11-01T00:08:59.673Z,12.92
2022-11-01T00:09:59.694Z,13.01
2022-11-01T00:10:59.741Z,13.04
2022-11-01T00:11:59.660Z,13.11
2022-11-01T00:12:59.881Z,13.23
2022-11-01T00:13:59.601Z,13.25
2022-11-01T00:14:59.594Z,13.30
2022-11-01T00:15:59.609Z,13.38
2022-11-01T00:16:59.624Z,13.36
2022-11-01T00:17:59.556Z,13.38
2022-11-01T00:18:59.540Z,13.38
2022-11-01T00:19:59.573Z,13.36
2022-11-01T00:20:59.531Z,13.36
2022-11-01T00:21:59.530Z,13.33
2022-11-01T00:22:59.779Z,13.33
2022-11-01T00:23:59.494Z,13.28
2022-11-01T00:24:59.473Z,13.23
2022-11-01T00:25:59.459Z,13.25
2022-11-01T00:26:59.470Z,13.15
2022-11-01T00:27:59.673Z,13.14
2022-11-01T00:28:59.403Z,13.12
2022-11-01T00:29:59.385Z,13.14
2022-11-01T00:30:59.372Z,13.15
2022-11-01T00:31:59.395Z,13.11
2022-11-01T00:32:59.444Z,13.05
2022-11-01T00:33:59.331Z,13.05
2022-11-01T00:34:59.321Z,13.01
2022-11-01T00:35:59.343Z,12.96
2022-11-01T00:36:59.302Z,12.97
2022-11-01T00:37:59.686Z,13.00
2022-11-01T00:38:59.260Z,12.93
2022-11-01T00:39:59.252Z,12.90
2022-11-01T00:40:59.233Z,12.89
2022-11-01T00:41:59.231Z,12.82
2022-11-01T00:42:59.207Z,12.83
2022-11-01T00:43:59.202Z,12.78
2022-11-01T00:44:59.207Z,12.74
2022-11-01T00:45:59.171Z,12.71
2022-11-01T00:46:59.191Z,12.72
2022-11-01T00:47:59.518Z,12.68
2022-11-01T00:48:59.127Z,12.67
2022-11-01T00:49:59.117Z,12.62
2022-11-01T00:50:59.107Z,12.46
2022-11-01T00:51:59.152Z,12.39
2022-11-01T00:52:59.071Z,12.35
2022-11-01T00:53:59.184Z,12.37
2022-11-01T00:54:59.050Z,12.21
2022-11-01T00:55:59.041Z,12.17
2022-11-01T00:56:59.063Z,12.10
2022-11-01T00:57:59.311Z,12.01
2022-11-01T00:58:59.028Z,11.94
2022-11-01T00:59:59.006Z,11.96
2022-11-01T01:00:58.992Z,11.82
2022-11-01T01:01:59.109Z,11.79
2022-11-01T01:02:59.092Z,11.73
2022-11-01T01:03:58.944Z,11.75
2022-11-01T01:04:58.918Z,11.67
2022-11-01T01:05:58.990Z,11.69
2022-11-01T01:06:58.940Z,11.60
2022-11-01T01:07:58.879Z,11.61
2022-11-01T01:08:58.891Z,11.52
2022-11-01T01:09:58.867Z,11.49
2022-11-01T01:10:58.843Z,11.46
2022-11-01T01:11:58.840Z,11.44
2022-11-01T01:12:58.987Z,11.39
2022-11-01T01:13:58.808Z,11.37
2022-11-01T01:14:58.800Z,11.36
2022-11-01T01:15:58.780Z,11.36
2022-11-01T01:16:58.789Z,11.36
2022-11-01T01:17:58.952Z,11.36
2022-11-01T01:18:58.783Z,11.32
2022-11-01T01:19:58.740Z,11.24
2022-11-01T01:20:58.720Z,11.25
2022-11-01T01:21:58.749Z,11.18
2022-11-01T01:22:58.709Z,11.21
2022-11-01T01:23:58.673Z,11.17
2022-11-01T01:24:58.650Z,11.09
2022-11-01T01:25:58.664Z,11.10
2022-11-01T01:26:58.694Z,11.14
2022-11-01T01:27:58.714Z,11.15
2022-11-01T01:28:58.639Z,11.27
2022-11-01T01:29:58.625Z,11.33
2022-11-01T01:30:58.599Z,11.42
2022-11-01T01:31:58.598Z,11.47
2022-11-01T01:32:58.636Z,11.51
2022-11-01T01:33:58.567Z,11.52
2022-11-01T01:34:58.529Z,11.57
2022-11-01T01:35:58.532Z,11.75
2022-11-01T01:36:58.498Z,11.88
2022-11-01T01:37:58.592Z,11.98
2022-11-01T01:38:58.469Z,12.05
2022-11-01T01:39:58.476Z,12.05
2022-11-01T01:40:58.471Z,12.09
2022-11-01T01:41:58.442Z,12.10
2022-11-01T01:42:58.429Z,12.12
2022-11-01T01:43:58.441Z,12.12
2022-11-01T01:44:58.413Z,12.10
2022-11-01T01:45:58.425Z,12.09
2022-11-01T01:46:58.372Z,12.19
2022-11-01T01:47:58.393Z,12.29
2022-11-01T01:48:58.368Z,12.31
2022-11-01T01:49:58.340Z,12.31
2022-11-01T01:50:58.328Z,12.34
2022-11-01T01:51:58.309Z,12.37
2022-11-01T01:52:58.423Z,12.37
2022-11-01T01:53:58.375Z,12.37
2022-11-01T01:54:58.271Z,12.38
2022-11-01T01:55:58.269Z,12.41
2022-11-01T01:56:58.242Z,12.39
2022-11-01T01:57:58.228Z,12.39
2022-11-01T01:58:58.207Z,12.41
2022-11-01T01:59:58.221Z,12.39
2022-11-01T02:00:58.265Z,12.34
2022-11-01T02:01:58.283Z,12.35
2022-11-01T02:02:58.479Z,12.32
2022-11-01T02:03:58.148Z,12.35
2022-11-01T02:04:58.128Z,12.34
2022-11-01T02:05:58.142Z,12.29
2022-11-01T02:06:58.107Z,12.27
2022-11-01T02:07:58.417Z,12.24
2022-11-01T02:08:58.146Z,12.27
2022-11-01T02:09:58.076Z,12.20
2022-11-01T02:10:58.067Z,12.17
2022-11-01T02:11:58.047Z,12.16
2022-11-01T02:12:58.017Z,12.13
2022-11-01T02:13:58.090Z,12.16
2022-11-01T02:14:58.040Z,12.20
2022-11-01T02:15:58.013Z,12.21
2022-11-01T02:16:57.999Z,12.23
2022-11-01T02:17:57.980Z,12.23
2022-11-01T02:18:57.978Z,12.24
2022-11-01T02:19:57.937Z,12.28
2022-11-01T02:20:57.917Z,12.28
2022-11-01T02:21:57.929Z,12.28
2022-11-01T02:22:57.898Z,12.29
2022-11-01T02:23:57.903Z,12.24
2022-11-01T02:24:57.868Z,12.20
2022-11-01T02:25:57.878Z,12.20
2022-11-01T02:26:57.849Z,12.19
2022-11-01T02:27:57.840Z,12.19
2022-11-01T02:29:01.719Z,12.20
2022-11-01T02:29:58.805Z,12.20
2022-11-01T02:30:57.965Z,12.20
2022-11-01T02:31:57.783Z,12.14
2022-11-01T02:32:57.766Z,12.13
2022-11-01T02:33:57.766Z,12.09
2022-11-01T02:34:57.737Z,12.09
2022-11-01T02:35:57.724Z,12.07
2022-11-01T02:36:57.719Z,12.01
2022-11-01T02:37:57.705Z,11.96
2022-11-01T02:38:57.677Z,11.98
2022-11-01T02:39:57.695Z,11.90
2022-11-01T02:40:57.657Z,11.88
2022-11-01T02:41:57.657Z,11.88
2022-11-01T02:42:57.626Z,11.85
2022-11-01T02:43:57.630Z,11.86
2022-11-01T02:44:57.604Z,11.85
2022-11-01T02:45:57.595Z,11.83
2022-11-01T02:46:57.590Z,11.86
2022-11-01T02:47:57.567Z,11.85
2022-11-01T02:48:57.555Z,11.83
2022-11-01T02:49:57.565Z,11.83
2022-11-01T02:50:57.557Z,11.83
2022-11-01T02:51:57.534Z,11.83
2022-11-01T02:52:57.503Z,11.79
2022-11-01T02:53:57.497Z,11.78
2022-11-01T02:54:57.476Z,11.82
2022-11-01T02:55:57.491Z,11.82
2022-11-01T02:56:57.458Z,11.83
2022-11-01T02:57:57.437Z,11.85
2022-11-01T02:58:57.417Z,11.85
2022-11-01T02:59:57.434Z,11.79
2022-11-01T03:00:57.455Z,11.78
2022-11-01T03:01:57.535Z,11.79
2022-11-01T03:02:57.363Z,11.69
2022-11-01T03:03:57.357Z,11.65
2022-11-01T03:04:57.343Z,11.65
2022-11-01T03:05:57.340Z,11.64
2022-11-01T03:06:57.325Z,11.60
2022-11-01T03:07:57.304Z,11.54
2022-11-01T03:08:57.283Z,11.55
2022-11-01T03:09:57.292Z,11.51
2022-11-01T03:10:57.264Z,11.51
2022-11-01T03:11:57.273Z,11.55
2022-11-01T03:12:57.235Z,11.55
2022-11-01T03:13:57.222Z,11.57
2022-11-01T03:14:57.215Z,11.57
2022-11-01T03:15:57.238Z,11.58
2022-11-01T03:16:57.203Z,11.54
2022-11-01T03:17:57.194Z,11.52
2022-11-01T03:18:57.155Z,11.52
2022-11-01T03:19:57.142Z,11.54
2022-11-01T03:20:57.138Z,11.54
2022-11-01T03:21:57.152Z,11.54
2022-11-01T03:22:57.111Z,11.51
2022-11-01T03:23:57.101Z,11.51
2022-11-01T03:24:57.092Z,11.51
2022-11-01T03:25:57.072Z,11.44
2022-11-01T03:26:57.060Z,11.46
2022-11-01T03:27:57.044Z,11.43
2022-11-01T03:28:57.026Z,11.44
2022-11-01T03:29:57.188Z,11.43
2022-11-01T03:30:56.995Z,11.43
2022-11-01T03:31:57.001Z,11.44
2022-11-01T03:32:57.001Z,11.43
2022-11-01T03:33:57.196Z,11.40
2022-11-01T03:34:56.942Z,11.42
2022-11-01T03:35:56.941Z,11.43
2022-11-01T03:36:56.931Z,11.39
2022-11-01T03:37:56.918Z,11.39
2022-11-01T03:38:56.891Z,11.40
2022-11-01T03:39:56.880Z,11.40
2022-11-01T03:40:56.870Z,11.40
2022-11-01T03:41:56.872Z,11.43
2022-11-01T03:42:56.852Z,11.44
2022-11-01T03:43:56.840Z,11.51
2022-11-01T03:44:56.812Z,11.52
2022-11-01T03:45:56.810Z,11.60
2022-11-01T03:46:56.802Z,11.67
2022-11-01T03:47:56.780Z,11.67
2022-11-01T03:48:56.772Z,11.85
2022-11-01T03:49:56.770Z,11.91
2022-11-01T03:50:56.731Z,11.91
2022-11-01T03:51:56.737Z,12.04
2022-11-01T03:52:56.719Z,12.07
2022-11-01T03:53:56.705Z,12.07
2022-11-01T03:54:56.680Z,12.09
2022-11-01T03:55:56.673Z,12.12
2022-11-01T03:56:56.694Z,12.12
2022-11-01T03:57:56.644Z,12.14
2022-11-01T03:58:56.618Z,12.16
2022-11-01T03:59:56.620Z,12.19
2022-11-01T04:00:56.652Z,12.20
2022-11-01T04:01:56.771Z,12.20
2022-11-01T04:02:56.581Z,12.21
2022-11-01T04:03:56.635Z,12.23
2022-11-01T04:04:56.563Z,12.24
2022-11-01T04:05:56.595Z,12.23
2022-11-01T04:06:56.531Z,12.24
2022-11-01T04:07:56.543Z,12.24
2022-11-01T04:08:56.492Z,12.27
2022-11-01T04:09:56.483Z,12.29
2022-11-01T04:10:56.473Z,12.31
2022-11-01T04:11:56.469Z,12.32
2022-11-01T04:12:56.444Z,12.37
2022-11-01T04:13:56.428Z,12.37
2022-11-01T04:14:56.411Z,12.37
2022-11-01T04:15:56.400Z,12.35
2022-11-01T04:16:56.409Z,12.38
2022-11-01T04:17:56.395Z,12.39
2022-11-01T04:18:56.374Z,12.38
2022-11-01T04:19:56.350Z,12.37
2022-11-01T04:20:56.338Z,12.41
2022-11-01T04:21:56.337Z,12.39
2022-11-01T04:22:56.316Z,12.42
2022-11-01T04:23:56.331Z,12.41
2022-11-01T04:24:56.280Z,12.41
2022-11-01T04:25:56.271Z,12.41
2022-11-01T04:26:56.278Z,12.39
2022-11-01T04:27:56.247Z,12.39
2022-11-01T04:28:56.239Z,12.39
2022-11-01T04:29:56.217Z,12.39
2022-11-01T04:30:56.207Z,12.39
2022-11-01T04:31:56.206Z,12.42
2022-11-01T04:32:56.178Z,12.41
2022-11-01T04:33:56.176Z,12.45
2022-11-01T04:34:56.225Z,12.46
2022-11-01T04:35:56.156Z,12.49
2022-11-01T04:36:56.140Z,12.46
2022-11-01T04:37:56.120Z,12.47
2022-11-01T04:38:56.105Z,12.47
2022-11-01T04:39:56.086Z,12.47
2022-11-01T04:40:56.077Z,12.50
2022-11-01T04:41:56.077Z,12.50
2022-11-01T04:42:56.059Z,12.52
2022-11-01T04:43:56.036Z,12.52
2022-11-01T04:44:56.034Z,12.52
2022-11-01T04:45:56.006Z,12.50
2022-11-01T04:46:56.006Z,12.53
2022-11-01T04:47:55.977Z,12.53
2022-11-01T04:48:55.964Z,12.54
2022-11-01T04:49:55.948Z,12.53
2022-11-01T04:50:55.947Z,12.53
2022-11-01T04:51:55.944Z,12.53
2022-11-01T04:52:55.924Z,12.53
2022-11-01T04:53:55.909Z,12.54
2022-11-01T04:54:55.906Z,12.57
2022-11-01T04:55:55.883Z,12.56
2022-11-01T04:56:55.885Z,12.54
2022-11-01T04:57:55.854Z,12.56
2022-11-01T04:58:55.843Z,12.54
2022-11-01T04:59:55.825Z,12.57
2022-11-01T05:00:55.849Z,12.56
2022-11-01T05:01:55.860Z,12.57
2022-11-01T05:02:55.799Z,12.57
2022-11-01T05:03:55.773Z,12.59
2022-11-01T05:04:55.754Z,12.57
2022-11-01T05:05:55.737Z,12.56
2022-11-01T05:06:55.753Z,12.57
2022-11-01T05:07:55.779Z,12.56
2022-11-01T05:08:55.716Z,12.54
2022-11-01T05:09:55.710Z,12.56
2022-11-01T05:10:55.691Z,12.56
2022-11-01T05:11:55.684Z,12.57
2022-11-01T05:12:55.657Z,12.56
2022-11-01T05:13:55.645Z,12.56
2022-11-01T05:14:56.884Z,12.53
2022-11-01T05:16:17.871Z,12.54
2022-11-01T05:16:56.616Z,12.54
2022-11-01T05:17:55.616Z,12.54
2022-11-01T05:18:55.577Z,12.54
2022-11-01T05:19:55.586Z,12.54
2022-11-01T05:20:55.549Z,12.54
2022-11-01T05:21:55.546Z,12.56
2022-11-01T05:22:55.535Z,12.53
2022-11-01T05:23:55.505Z,12.54
2022-11-01T05:24:55.504Z,12.54
2022-11-01T05:25:55.476Z,12.56
2022-11-01T05:26:55.485Z,12.56
2022-11-01T05:27:55.453Z,12.59
2022-11-01T05:28:55.449Z,12.57
2022-11-01T05:29:55.424Z,12.59
2022-11-01T05:30:55.413Z,12.59
2022-11-01T05:31:55.423Z,12.59
2022-11-01T05:32:55.394Z,12.62
2022-11-01T05:33:55.373Z,12.60
2022-11-01T05:34:55.364Z,12.64
2022-11-01T05:35:55.409Z,12.62
2022-11-01T05:36:55.408Z,12.64
2022-11-01T05:37:55.348Z,12.64
2022-11-01T05:38:55.314Z,12.65
2022-11-01T05:39:55.313Z,12.67
2022-11-01T05:40:55.287Z,12.65
2022-11-01T05:41:58.246Z,12.65
2022-11-01T05:42:56.260Z,12.64
2022-11-01T05:43:55.276Z,12.64
2022-11-01T05:44:55.276Z,12.67
2022-11-01T05:45:55.236Z,12.64
2022-11-01T05:46:55.224Z,12.65
2022-11-01T05:47:55.194Z,12.67
2022-11-01T05:48:55.195Z,12.68
2022-11-01T05:49:55.173Z,12.67
2022-11-01T05:50:55.178Z,12.67
2022-11-01T05:51:55.152Z,12.67
2022-11-01T05:52:55.124Z,12.68
2022-11-01T05:53:55.123Z,12.68
2022-11-01T05:54:55.206Z,12.67
2022-11-01T05:55:55.774Z,12.67
2022-11-01T05:56:55.131Z,12.67
2022-11-01T05:57:55.078Z,12.65
2022-11-01T05:58:55.043Z,12.64
2022-11-01T05:59:55.054Z,12.67
2022-11-01T06:00:55.032Z,12.64
2022-11-01T06:01:55.145Z,12.64
2022-11-01T06:02:55.042Z,12.60
2022-11-01T06:03:54.981Z,12.62
2022-11-01T06:04:57.963Z,12.59
2022-11-01T06:05:55.972Z,12.57
2022-11-01T06:06:54.975Z,12.57
2022-11-01T06:07:54.942Z,12.59
2022-11-01T06:08:54.914Z,12.56
2022-11-01T06:09:54.912Z,12.56
2022-11-01T06:10:54.904Z,12.54
2022-11-01T06:11:54.892Z,12.56
2022-11-01T06:12:54.945Z,12.56
2022-11-01T06:13:54.860Z,12.54
2022-11-01T06:14:54.861Z,12.54
2022-11-01T06:15:54.833Z,12.54
2022-11-01T06:16:54.833Z,12.56
2022-11-01T06:17:54.802Z,12.54
2022-11-01T06:18:54.806Z,12.54
2022-11-01T06:19:54.785Z,12.52
2022-11-01T06:20:54.781Z,12.53
2022-11-01T06:21:54.773Z,12.53
2022-11-01T06:22:54.732Z,12.53
2022-11-01T06:23:54.711Z,12.52
2022-11-01T06:24:54.709Z,12.54
2022-11-01T06:25:54.691Z,12.53
2022-11-01T06:26:54.715Z,12.54
2022-11-01T06:27:54.665Z,12.56
2022-11-01T06:28:54.652Z,12.57
2022-11-01T06:29:54.631Z,12.57
2022-11-01T06:30:54.672Z,12.56
2022-11-01T06:31:54.620Z,12.56
2022-11-01T06:32:54.591Z,12.56
2022-11-01T06:33:54.583Z,12.56
2022-11-01T06:34:54.586Z,12.56
2022-11-01T06:35:54.553Z,12.54
2022-11-01T06:36:54.560Z,12.56
2022-11-01T06:37:54.534Z,12.56
2022-11-01T06:38:54.519Z,12.57
2022-11-01T06:39:54.501Z,12.56
2022-11-01T06:40:54.507Z,12.54
2022-11-01T06:41:54.502Z,12.56
2022-11-01T06:42:54.470Z,12.57
2022-11-01T06:43:54.449Z,12.59
2022-11-01T06:44:54.440Z,12.59
2022-11-01T06:45:54.429Z,12.59
2022-11-01T06:46:54.439Z,12.56
2022-11-01T06:47:54.409Z,12.59
2022-11-01T06:48:54.389Z,12.57
2022-11-01T06:49:54.384Z,12.64
2022-11-01T06:50:54.370Z,12.62
2022-11-01T06:51:54.341Z,12.64
2022-11-01T06:52:54.359Z,12.67
2022-11-01T06:53:54.329Z,12.68
2022-11-01T06:54:54.322Z,12.67
2022-11-01T06:55:54.291Z,12.68
2022-11-01T06:56:54.291Z,12.68
2022-11-01T06:57:54.282Z,12.68
2022-11-01T06:58:54.260Z,12.70
2022-11-01T06:59:54.248Z,12.70
2022-11-01T07:00:54.333Z,12.71
2022-11-01T07:01:54.292Z,12.70
2022-11-01T07:02:54.309Z,12.70
2022-11-01T07:03:54.199Z,12.68
2022-11-01T07:04:54.194Z,12.70
2022-11-01T07:05:54.186Z,12.68
2022-11-01T07:06:54.173Z,12.70
2022-11-01T07:07:54.310Z,12.72
2022-11-01T07:08:54.138Z,12.72
2022-11-01T07:09:54.130Z,12.75
2022-11-01T07:10:54.104Z,12.78
2022-11-01T07:11:54.178Z,12.79
2022-11-01T07:12:54.118Z,12.82
2022-11-01T07:13:54.057Z,12.82
2022-11-01T07:14:54.092Z,12.86
2022-11-01T07:15:54.038Z,12.89
2022-11-01T07:16:54.028Z,12.90
2022-11-01T07:17:54.055Z,12.89
2022-11-01T07:18:54.004Z,12.90
2022-11-01T07:19:53.976Z,12.92
2022-11-01T07:20:53.979Z,12.92
2022-11-01T07:21:53.956Z,12.93
2022-11-01T07:22:53.968Z,12.95
2022-11-01T07:23:53.935Z,12.96
2022-11-01T07:24:53.914Z,12.96
2022-11-01T07:25:53.898Z,12.97
2022-11-01T07:26:53.887Z,12.97
2022-11-01T07:27:53.902Z,13.04
2022-11-01T07:28:53.867Z,13.10
2022-11-01T07:29:53.844Z,13.10
2022-11-01T07:30:53.830Z,13.11
2022-11-01T07:31:53.819Z,13.15
2022-11-01T07:32:53.824Z,13.23
2022-11-01T07:33:53.797Z,13.25
2022-11-01T07:34:53.798Z,13.42
2022-11-01T07:35:53.767Z,13.41
2022-11-01T07:36:53.767Z,13.48
2022-11-01T07:37:53.747Z,13.48
2022-11-01T07:38:53.742Z,13.49
2022-11-01T07:39:53.707Z,13.54
2022-11-01T07:40:53.708Z,13.54
2022-11-01T07:41:53.685Z,13.62
2022-11-01T07:42:53.694Z,13.60
2022-11-01T07:43:53.665Z,13.63
2022-11-01T07:44:53.655Z,13.64
2022-11-01T07:45:53.634Z,13.67
2022-11-01T07:46:53.616Z,13.70
2022-11-01T07:47:53.615Z,13.73
2022-11-01T07:48:53.595Z,13.75
2022-11-01T07:49:53.597Z,13.77
2022-11-01T07:50:53.574Z,13.81
2022-11-01T07:51:53.564Z,13.85
2022-11-01T07:52:53.553Z,13.85
2022-11-01T07:53:53.591Z,13.87
2022-11-01T07:54:53.735Z,13.87
2022-11-01T07:55:53.504Z,13.88
2022-11-01T07:56:53.533Z,13.85
2022-11-01T07:57:53.487Z,13.84
2022-11-01T07:58:53.465Z,13.87
2022-11-01T07:59:53.447Z,13.88
2022-11-01T08:00:53.473Z,13.89
2022-11-01T08:01:53.571Z,13.91
2022-11-01T08:02:53.423Z,13.92
2022-11-01T08:03:53.384Z,13.92
2022-11-01T08:04:53.383Z,13.95
2022-11-01T08:05:53.376Z,13.97
2022-11-01T08:06:53.367Z,14.02
2022-11-01T08:07:53.353Z,14.09
2022-11-01T08:08:53.333Z,14.18
2022-11-01T08:09:53.314Z,14.33
2022-11-01T08:10:53.303Z,14.51
2022-11-01T08:11:53.283Z,14.75
2022-11-01T08:12:53.291Z,14.75
2022-11-01T08:13:53.254Z,14.86
2022-11-01T08:14:53.254Z,15.03
2022-11-01T08:15:53.243Z,15.19
2022-11-01T08:16:53.224Z,15.39
2022-11-01T08:17:53.221Z,15.57
2022-11-01T08:18:53.194Z,15.68
2022-11-01T08:19:53.174Z,15.78
2022-11-01T08:20:53.172Z,15.93
2022-11-01T08:21:53.144Z,16.02
2022-11-01T08:22:53.163Z,16.07
2022-11-01T08:23:53.123Z,16.09
2022-11-01T08:24:53.114Z,16.17
2022-11-01T08:25:53.095Z,16.25
2022-11-01T08:26:53.093Z,16.28
2022-11-01T08:27:53.085Z,16.31
2022-11-01T08:28:53.063Z,16.33
2022-11-01T08:29:53.043Z,16.30
2022-11-01T08:30:53.050Z,16.30
2022-11-01T08:31:53.100Z,16.34
2022-11-01T08:32:53.022Z,16.43
2022-11-01T08:33:52.995Z,16.48
2022-11-01T08:34:52.981Z,16.58
2022-11-01T08:35:52.964Z,16.58
2022-11-01T08:36:52.975Z,16.61
2022-11-01T08:37:52.960Z,16.63
2022-11-01T08:38:52.922Z,16.63
2022-11-01T08:39:52.902Z,16.64
2022-11-01T08:40:52.893Z,16.64
2022-11-01T08:41:52.887Z,16.76
2022-11-01T08:42:52.892Z,16.83
2022-11-01T08:43:52.853Z,16.88
2022-11-01T08:44:52.844Z,16.94
2022-11-01T08:45:52.839Z,16.93
2022-11-01T08:46:52.823Z,17.00
2022-11-01T08:47:52.822Z,17.01
2022-11-01T08:48:52.795Z,17.03
2022-11-01T08:49:52.784Z,17.07
2022-11-01T08:50:52.765Z,17.11
2022-11-01T08:51:52.752Z,17.14
2022-11-01T08:52:52.753Z,17.15
2022-11-01T08:53:52.724Z,17.18
2022-11-01T08:54:52.708Z,17.16
2022-11-01T08:55:52.715Z,17.16
2022-11-01T08:56:52.681Z,17.19
2022-11-01T08:57:52.692Z,17.19
2022-11-01T08:58:52.654Z,17.19
2022-11-01T08:59:52.651Z,17.15
2022-11-01T09:00:52.731Z,17.14
2022-11-01T09:01:52.734Z,17.12
2022-11-01T09:02:52.612Z,17.12
2022-11-01T09:03:52.595Z,17.12
2022-11-01T09:04:52.572Z,17.11
2022-11-01T09:05:52.573Z,17.15
2022-11-01T09:06:52.552Z,17.14
2022-11-01T09:07:52.553Z,17.15
2022-11-01T09:08:52.526Z,17.16
2022-11-01T09:09:52.513Z,17.19
2022-11-01T09:10:52.493Z,17.16
2022-11-01T09:11:52.484Z,17.16
2022-11-01T09:12:52.503Z,17.26
2022-11-01T09:13:52.462Z,17.26
2022-11-01T09:14:52.442Z,17.31
2022-11-01T09:15:52.432Z,17.30
2022-11-01T09:16:52.412Z,17.31
2022-11-01T09:17:52.422Z,17.33
2022-11-01T09:18:52.383Z,17.36
2022-11-01T09:19:52.373Z,17.38
2022-11-01T09:20:52.362Z,17.37
2022-11-01T09:21:52.353Z,17.37
2022-11-01T09:22:52.388Z,17.38
2022-11-01T09:23:52.342Z,17.40
2022-11-01T09:24:52.314Z,17.41
2022-11-01T09:25:52.304Z,17.43
2022-11-01T09:26:52.293Z,17.44
2022-11-01T09:27:52.282Z,17.46
2022-11-01T09:28:52.254Z,17.46
2022-11-01T09:29:52.303Z,17.48
2022-11-01T09:31:01.371Z,17.51
2022-11-01T09:31:53.225Z,17.51
2022-11-01T09:32:52.213Z,17.49
2022-11-01T09:33:52.193Z,17.51
2022-11-01T09:34:52.171Z,17.52
2022-11-01T09:35:56.741Z,17.54
2022-11-01T09:36:53.145Z,17.54
2022-11-01T09:37:52.153Z,17.56
2022-11-01T09:38:52.112Z,17.58
2022-11-01T09:39:52.111Z,17.59
2022-11-01T09:40:52.092Z,17.62
2022-11-01T09:41:52.082Z,17.64
2022-11-01T09:42:52.072Z,17.64
2022-11-01T09:43:52.062Z,17.66
2022-11-01T09:44:52.032Z,17.68
2022-11-01T09:45:52.022Z,17.71
2022-11-01T09:46:53.509Z,17.70
2022-11-01T09:47:52.019Z,17.70
2022-11-01T09:48:51.982Z,17.64
2022-11-01T09:49:51.972Z,17.64
2022-11-01T09:50:51.954Z,17.70
2022-11-01T09:51:51.950Z,17.66
2022-11-01T09:52:51.949Z,17.64
2022-11-01T09:53:51.923Z,17.64
2022-11-01T09:54:51.903Z,17.64
2022-11-01T09:55:51.902Z,17.63
2022-11-01T09:56:51.884Z,17.66
2022-11-01T09:57:51.885Z,17.66
2022-11-01T09:58:51.853Z,17.71
2022-11-01T09:59:51.842Z,17.86
2022-11-01T10:00:51.856Z,18.07
2022-11-01T10:01:51.905Z,18.05
2022-11-01T10:02:51.815Z,18.35
2022-11-01T10:03:51.792Z,18.36
2022-11-01T10:04:51.783Z,18.58
2022-11-01T10:05:51.765Z,18.58
2022-11-01T10:06:51.763Z,18.60
2022-11-01T10:07:51.743Z,18.76
2022-11-01T10:08:51.733Z,18.87
2022-11-01T10:09:51.711Z,18.87
2022-11-01T10:10:51.693Z,18.92
2022-11-01T10:11:51.684Z,18.99
2022-11-01T10:12:51.682Z,19.07
2022-11-01T10:13:51.652Z,19.08
2022-11-01T10:14:51.634Z,19.07
2022-11-01T10:15:51.643Z,18.95
2022-11-01T10:16:51.632Z,18.88
2022-11-01T10:17:52.647Z,18.78
2022-11-01T10:18:51.591Z,18.75
2022-11-01T10:19:51.573Z,18.70
2022-11-01T10:20:51.575Z,18.65
2022-11-01T10:21:51.551Z,18.63
2022-11-01T10:22:51.550Z,18.63
2022-11-01T10:23:51.530Z,18.63
2022-11-01T10:24:51.502Z,18.62
2022-11-01T10:25:51.492Z,18.60
2022-11-01T10:26:51.482Z,18.58
2022-11-01T10:27:51.485Z,18.54
2022-11-01T10:28:51.452Z,18.50
2022-11-01T10:29:51.443Z,18.47
2022-11-01T10:30:51.423Z,18.44
2022-11-01T10:31:51.412Z,18.48
2022-11-01T10:32:51.413Z,18.42
2022-11-01T10:33:51.393Z,18.35
2022-11-01T10:34:51.380Z,18.36
2022-11-01T10:35:51.365Z,18.33
2022-11-01T10:36:51.355Z,18.33
2022-11-01T10:38:04.098Z,18.29
2022-11-01T10:39:44.390Z,18.29
2022-11-01T10:39:55.384Z,18.26
2022-11-01T10:40:51.293Z,18.23
2022-11-01T10:41:51.283Z,18.23
2022-11-01T10:42:51.272Z,18.21
2022-11-01T10:43:51.253Z,18.23
2022-11-01T10:44:51.235Z,18.23
2022-11-01T10:45:51.224Z,18.25
2022-11-01T10:46:51.237Z,18.27
2022-11-01T10:47:51.214Z,18.27
2022-11-01T10:48:51.183Z,18.26
2022-11-01T10:50:07.686Z,18.30
2022-11-01T10:50:52.165Z,18.30
2022-11-01T10:51:51.150Z,18.29
2022-11-01T10:52:51.143Z,18.29
2022-11-01T10:53:51.123Z,18.32
2022-11-01T10:54:51.103Z,18.33
2022-11-01T10:55:51.097Z,18.35
2022-11-01T10:56:51.093Z,18.36
2022-11-01T10:57:51.081Z,18.36
2022-11-01T10:58:51.055Z,18.35
2022-11-01T10:59:51.043Z,18.35
2022-11-01T11:00:51.079Z,18.36
2022-11-01T11:01:51.086Z,18.36
2022-11-01T11:02:51.029Z,18.35
2022-11-01T11:03:50.991Z,18.37
2022-11-01T11:04:51.230Z,18.41
2022-11-01T11:05:50.972Z,18.48
2022-11-01T11:06:50.953Z,18.51
2022-11-01T11:07:50.953Z,18.62
2022-11-01T11:08:50.914Z,18.72
2022-11-01T11:09:50.966Z,18.81
2022-11-01T11:10:50.894Z,18.88
2022-11-01T11:11:50.892Z,18.94
2022-11-01T11:12:50.883Z,19.04
2022-11-01T11:13:50.853Z,19.06
2022-11-01T11:14:50.833Z,19.16
2022-11-01T11:15:58.335Z,19.25
2022-11-01T11:16:50.808Z,19.32
2022-11-01T11:17:50.809Z,19.39
2022-11-01T11:18:58.286Z,19.39
2022-11-01T11:19:50.766Z,19.43
2022-11-01T11:20:50.758Z,19.56
2022-11-01T11:21:50.747Z,19.61
2022-11-01T11:22:50.753Z,19.59
2022-11-01T11:23:50.721Z,19.56
2022-11-01T11:24:50.707Z,19.48
2022-11-01T11:25:50.753Z,19.50
2022-11-01T11:26:53.987Z,19.55
2022-11-01T11:27:50.686Z,19.74
2022-11-01T11:28:50.683Z,19.81
2022-11-01T11:29:50.672Z,19.80
2022-11-01T11:30:50.631Z,19.92
2022-11-01T11:31:50.623Z,20.05
2022-11-01T11:32:50.610Z,20.10
2022-11-01T11:33:50.604Z,20.06
2022-11-01T11:34:50.576Z,20.14
2022-11-01T11:35:50.568Z,20.08
2022-11-01T11:36:50.557Z,20.14
2022-11-01T11:37:50.558Z,20.01
2022-11-01T11:38:50.519Z,19.80
2022-11-01T11:39:50.516Z,19.76
2022-11-01T11:40:50.491Z,19.71
2022-11-01T11:41:50.489Z,19.74
2022-11-01T11:42:50.467Z,19.77
2022-11-01T11:43:50.469Z,19.77
2022-11-01T11:44:53.583Z,19.84
2022-11-01T11:45:51.439Z,19.92
2022-11-01T11:46:50.417Z,19.88
2022-11-01T11:47:50.414Z,19.76
2022-11-01T11:48:50.400Z,19.66
2022-11-01T11:49:50.377Z,19.61
2022-11-01T11:50:50.360Z,19.61
2022-11-01T11:51:50.369Z,19.48
2022-11-01T11:52:50.328Z,19.19
2022-11-01T11:53:50.337Z,19.11
2022-11-01T11:54:50.306Z,18.99
2022-11-01T11:55:50.299Z,18.81
2022-11-01T11:56:50.287Z,18.66
2022-11-01T11:57:50.279Z,18.54
2022-11-01T11:58:50.269Z,18.42
2022-11-01T11:59:50.250Z,18.35
2022-11-01T12:00:50.260Z,18.32
2022-11-01T12:01:50.375Z,18.26
2022-11-01T12:02:50.245Z,18.14
2022-11-01T12:03:50.207Z,18.07
2022-11-01T12:04:50.178Z,18.00
2022-11-01T12:05:50.158Z,17.99
2022-11-01T12:06:50.157Z,17.95
2022-11-01T12:07:50.140Z,18.03
2022-11-01T12:08:50.168Z,18.21
2022-11-01T12:09:50.108Z,18.21
2022-11-01T12:10:50.099Z,18.21
2022-11-01T12:11:50.088Z,18.44
2022-11-01T12:12:50.078Z,18.67
2022-11-01T12:13:50.076Z,18.88
2022-11-01T12:14:50.040Z,19.10
2022-11-01T12:15:50.028Z,19.10
2022-11-01T12:16:50.027Z,19.36
2022-11-01T12:17:50.000Z,19.41
2022-11-01T12:18:50.006Z,19.47
2022-11-01T12:19:49.979Z,19.56
2022-11-01T12:20:49.958Z,19.65
2022-11-01T12:21:49.950Z,19.69
2022-11-01T12:22:49.931Z,19.78
2022-11-01T12:23:49.938Z,19.78
2022-11-01T12:24:49.909Z,19.77
2022-11-01T12:25:49.898Z,19.77
2022-11-01T12:26:49.889Z,19.73
2022-11-01T12:27:49.871Z,19.81
2022-11-01T12:28:49.873Z,19.80
2022-11-01T12:29:49.847Z,19.84
2022-11-01T12:30:49.833Z,19.84
2022-11-01T12:31:49.829Z,19.86
2022-11-01T12:32:49.800Z,19.88
2022-11-01T12:33:49.809Z,19.84
2022-11-01T12:34:49.783Z,19.94
2022-11-01T12:35:49.769Z,20.03
2022-11-01T12:36:49.763Z,20.16
2022-11-01T12:37:49.741Z,20.10
2022-11-01T12:38:49.809Z,20.11
2022-11-01T12:39:49.710Z,20.05
2022-11-01T12:40:49.690Z,20.13
2022-11-01T12:41:49.681Z,20.21
2022-11-01T12:42:49.661Z,20.31
2022-11-01T12:43:49.672Z,20.39
2022-11-01T12:44:49.640Z,20.51
2022-11-01T12:45:49.631Z,20.57
2022-11-01T12:46:49.619Z,20.59
2022-11-01T12:47:49.600Z,20.58
2022-11-01T12:48:49.601Z,20.59
2022-11-01T12:49:49.579Z,20.61
2022-11-01T12:50:49.559Z,20.55
2022-11-01T12:51:49.551Z,20.52
2022-11-01T12:52:49.537Z,20.54